createdAt,value
2023-01-23T00:00:56.027Z,47.35
2023-01-23T00:05:18.046Z,55.15
2023-01-23T00:09:39.793Z,45.35
2023-01-23T00:14:03.687Z,47.60
2023-01-23T00:18:25.607Z,45.30
2023-01-23T00:22:47.647Z,48.55
2023-01-23T00:27:09.727Z,41.13
2023-01-23T00:31:38.532Z,49.35
2023-01-23T00:36:01.701Z,47.45
2023-01-23T00:40:26.587Z,46.20
2023-01-23T00:44:48.627Z,48.55
2023-01-23T00:49:10.670Z,50.60
2023-01-23T00:53:32.946Z,47.63
2023-01-23T00:57:55.350Z,52.47
2023-01-23T01:02:17.156Z,48.00
2023-01-23T01:06:39.288Z,46.95
2023-01-23T01:11:01.934Z,49.22
2023-01-23T01:15:24.312Z,51.40
2023-01-23T01:19:46.574Z,51.97
2023-01-23T01:24:09.891Z,53.40
2023-01-23T01:28:33.947Z,52.58
2023-01-23T01:32:56.871Z,51.85
2023-01-23T01:37:20.353Z,61.47
2023-01-23T01:41:42.091Z,53.65
2023-01-23T01:46:20.314Z,55.15
2023-01-23T01:50:43.415Z,48.88
2023-01-23T01:55:06.388Z,55.30
2023-01-23T01:59:33.609Z,60.90
2023-01-23T02:03:55.866Z,61.55
2023-01-23T02:08:41.852Z,58.58
2023-01-23T02:13:38.954Z,53.95
2023-01-23T02:18:00.987Z,63.35
2023-01-23T02:22:49.726Z,61.95
2023-01-23T02:27:11.581Z,63.58
2023-01-23T02:31:33.798Z,70.53
2023-01-23T02:35:56.246Z,62.75
2023-01-23T02:40:21.483Z,73.07
2023-01-23T02:44:44.505Z,68.07
2023-01-23T02:49:09.518Z,73.40
2023-01-23T02:53:31.967Z,63.15
2023-01-23T02:57:53.872Z,74.30
2023-01-23T03:02:16.026Z,67.20
2023-01-23T03:06:38.297Z,62.38
2023-01-23T03:11:04.748Z,79.07
2023-01-23T03:15:27.103Z,87.90
2023-01-23T03:19:49.425Z,80.00
2023-01-23T03:24:13.888Z,64.78
2023-01-23T03:28:54.566Z,66.82
2023-01-23T03:33:16.407Z,67.85
2023-01-23T03:37:38.535Z,63.83
2023-01-23T03:42:00.807Z,63.08
2023-01-23T03:46:25.325Z,57.65
2023-01-23T03:50:47.671Z,58.00
2023-01-23T03:55:10.147Z,64.90
2023-01-23T03:59:33.405Z,62.67
2023-01-23T04:03:55.691Z,67.03
2023-01-23T04:08:17.786Z,65.43
2023-01-23T04:12:45.325Z,65.05
2023-01-23T04:17:11.791Z,70.05
2023-01-23T04:21:33.846Z,68.75
2023-01-23T04:25:56.025Z,86.97
2023-01-23T04:30:18.239Z,71.18
2023-01-23T04:34:41.599Z,67.40
2023-01-23T04:39:05.247Z,78.00
2023-01-23T04:43:28.070Z,66.47
2023-01-23T04:47:50.506Z,79.50
2023-01-23T04:52:12.391Z,70.90
2023-01-23T04:56:39.667Z,67.32
2023-01-23T05:01:07.193Z,71.90
2023-01-23T05:05:32.714Z,71.07
2023-01-23T05:09:56.482Z,67.68
2023-01-23T05:14:19.090Z,65.68
2023-01-23T05:18:42.757Z,69.60
2023-01-23T05:23:04.931Z,57.63
2023-01-23T05:27:35.107Z,64.80
2023-01-23T05:31:57.880Z,59.55
2023-01-23T05:36:40.078Z,65.70
2023-01-23T05:41:03.716Z,67.28
2023-01-23T05:45:44.927Z,69.82
2023-01-23T05:50:20.412Z,70.88
2023-01-23T05:54:42.869Z,65.60
2023-01-23T05:59:06.535Z,69.53
2023-01-23T06:03:37.786Z,82.43
2023-01-23T06:08:32.809Z,64.97
2023-01-23T06:12:55.680Z,69.15
2023-01-23T06:17:18.007Z,77.63
2023-01-23T06:21:40.467Z,75.10
2023-01-23T06:26:03.748Z,86.82
2023-01-23T06:30:26.967Z,91.47
2023-01-23T06:34:50.335Z,81.72
2023-01-23T06:39:15.346Z,77.10
2023-01-23T06:43:38.209Z,89.60
2023-01-23T06:48:05.013Z,77.88
2023-01-23T06:52:27.221Z,87.78
2023-01-23T06:56:49.627Z,72.30
2023-01-23T07:01:16.347Z,81.18
2023-01-23T07:06:08.069Z,67.60
2023-01-23T07:10:30.546Z,65.57
2023-01-23T07:14:52.907Z,77.40
2023-01-23T07:19:20.713Z,72.45
2023-01-23T07:23:42.966Z,74.63
2023-01-23T07:28:05.851Z,73.38
2023-01-23T07:32:27.708Z,71.82
2023-01-23T07:36:49.867Z,71.95
2023-01-23T07:41:11.867Z,69.07
2023-01-23T07:45:33.778Z,73.57
2023-01-23T07:49:55.486Z,80.78
2023-01-23T07:54:17.953Z,68.55
2023-01-23T07:58:39.770Z,61.05
2023-01-23T08:03:01.707Z,65.10
2023-01-23T08:07:24.273Z,66.55
2023-01-23T08:11:46.254Z,69.03
2023-01-23T08:16:08.824Z,69.18
2023-01-23T08:20:30.882Z,75.97
2023-01-23T08:24:52.967Z,65.88
2023-01-23T08:29:15.009Z,77.88
2023-01-23T08:33:38.736Z,75.10
2023-01-23T08:38:02.688Z,79.22
2023-01-23T08:42:25.889Z,71.10
2023-01-23T08:46:48.055Z,72.10
2023-01-23T08:51:13.203Z,76.03
2023-01-23T08:55:36.368Z,79.80
2023-01-23T08:59:58.430Z,78.28
2023-01-23T09:04:20.409Z,78.00
2023-01-23T09:08:43.126Z,74.47
2023-01-23T09:13:05.566Z,63.25
2023-01-23T09:17:28.007Z,66.95
2023-01-23T09:21:49.926Z,65.07
2023-01-23T09:26:14.096Z,59.58
2023-01-23T09:30:37.238Z,56.95
2023-01-23T09:34:59.427Z,54.33
2023-01-23T09:39:22.292Z,54.03
2023-01-23T09:44:05.438Z,56.55
2023-01-23T09:48:44.372Z,55.17
2023-01-23T09:53:17.172Z,54.25
2023-01-23T09:58:01.508Z,56.08
2023-01-23T10:02:26.767Z,55.70
2023-01-23T10:07:19.153Z,55.42
2023-01-23T10:12:06.746Z,55.63
2023-01-23T10:16:55.960Z,56.13
2023-01-23T10:21:44.507Z,56.17
2023-01-23T10:26:47.766Z,51.22
2023-01-23T10:31:57.357Z,53.83
2023-01-23T10:36:54.698Z,48.88
2023-01-23T10:41:21.776Z,50.10
2023-01-23T10:45:47.437Z,50.00
2023-01-23T10:50:10.687Z,56.63
2023-01-23T10:54:47.222Z,52.42
2023-01-23T10:59:22.673Z,50.97
2023-01-23T11:03:46.067Z,53.55
2023-01-23T11:08:38.724Z,55.67
2023-01-23T11:13:01.290Z,60.00
2023-01-23T11:17:33.598Z,61.65
2023-01-23T11:22:20.566Z,65.03
2023-01-23T11:26:42.467Z,63.15
2023-01-23T11:31:15.055Z,65.40
2023-01-23T11:36:06.586Z,62.92
2023-01-23T11:40:28.280Z,62.25
2023-01-23T11:44:51.454Z,61.45
2023-01-23T11:49:27.266Z,58.40
2023-01-23T11:54:05.721Z,60.78
2023-01-23T11:58:49.846Z,49.65
2023-01-23T12:03:37.109Z,63.63
2023-01-23T12:08:18.407Z,64.47
2023-01-23T12:12:52.546Z,56.00
2023-01-23T12:17:27.013Z,45.97
2023-01-23T12:22:14.732Z,53.17
2023-01-23T12:26:46.807Z,50.63
2023-01-23T12:31:41.214Z,60.95
2023-01-23T12:36:48.560Z,53.70
2023-01-23T12:41:46.067Z,58.85
2023-01-23T12:46:35.545Z,50.88
2023-01-23T12:51:14.464Z,49.15
2023-01-23T12:55:58.774Z,50.20
2023-01-23T13:00:39.292Z,47.70
2023-01-23T13:05:07.573Z,50.30
2023-01-23T13:09:50.151Z,45.50
2023-01-23T13:14:23.301Z,53.40
2023-01-23T13:19:20.886Z,44.88
2023-01-23T13:23:43.488Z,47.25
2023-01-23T13:28:50.633Z,46.92
2023-01-23T13:33:15.687Z,46.92
2023-01-23T13:37:40.814Z,46.08
2023-01-23T13:42:15.074Z,45.38
2023-01-23T14:20:26.251Z,105.00
2023-01-23T14:24:55.228Z,114.00
2023-01-23T14:29:26.086Z,140.98
2023-01-23T14:33:49.658Z,141.95
2023-01-23T14:38:27.127Z,106.10
2023-01-23T14:43:09.731Z,136.65
2023-01-23T14:47:39.391Z,170.07
2023-01-23T14:52:07.086Z,129.82
2023-01-23T14:56:36.990Z,123.32
2023-01-23T15:01:01.553Z,299.23
2023-01-23T15:05:28.752Z,137.55
2023-01-23T15:09:50.587Z,175.75
2023-01-23T15:14:33.327Z,83.20
2023-01-23T15:19:06.575Z,101.93
2023-01-23T15:23:37.951Z,279.88
2023-01-23T15:27:59.849Z,111.57
2023-01-23T15:32:26.629Z,130.05
2023-01-23T15:36:57.897Z,145.02
2023-01-23T15:41:33.856Z,325.45
2023-01-23T15:45:56.679Z,168.10
2023-01-23T15:50:18.620Z,188.70
2023-01-23T15:54:40.767Z,180.63
2023-01-23T15:59:05.088Z,380.38
2023-01-23T16:04:04.499Z,328.70
2023-01-23T16:09:12.791Z,148.98
2023-01-23T16:14:40.687Z,241.27
2023-01-23T16:20:19.828Z,269.67
2023-01-23T16:25:56.970Z,310.38
2023-01-23T16:31:36.550Z,136.43
2023-01-23T16:38:25.469Z,235.27
2023-01-23T16:44:05.097Z,155.30
2023-01-23T17:00:56.910Z,194.38
2023-01-23T17:11:36.537Z,324.67
2023-01-23T17:17:31.394Z,145.68
2023-01-23T17:40:33.923Z,168.88
2023-01-23T17:52:46.488Z,124.28
2023-01-23T18:03:02.752Z,169.00
2023-01-23T18:07:24.989Z,130.23
2023-01-23T18:11:52.582Z,142.90
2023-01-23T18:16:28.910Z,130.13
2023-01-23T18:20:54.846Z,129.00
2023-01-23T18:25:19.984Z,130.65
2023-01-23T18:30:14.692Z,156.32
2023-01-23T18:34:42.632Z,126.18
2023-01-23T18:39:36.193Z,123.68
2023-01-23T18:44:15.990Z,115.20
2023-01-23T18:48:42.395Z,119.82
2023-01-23T18:53:36.310Z,122.97
2023-01-23T18:58:26.742Z,119.75
2023-01-23T19:02:52.789Z,125.47
2023-01-23T19:07:20.091Z,120.47
2023-01-23T19:12:26.154Z,119.32
2023-01-23T19:17:08.576Z,120.35
2023-01-23T19:21:32.010Z,107.10
2023-01-23T19:25:54.305Z,120.65
2023-01-23T19:30:17.162Z,114.43
2023-01-23T19:34:39.863Z,95.55
2023-01-23T19:39:06.818Z,96.63
2023-01-23T19:43:28.963Z,103.72
2023-01-23T19:47:53.457Z,95.88
2023-01-23T19:52:16.395Z,97.15
2023-01-23T19:56:39.501Z,99.40
2023-01-23T20:01:01.623Z,114.00
2023-01-23T20:05:24.585Z,109.82
2023-01-23T20:09:46.803Z,103.80
2023-01-23T20:14:08.951Z,99.53
2023-01-23T20:18:31.252Z,95.70
2023-01-23T20:22:54.316Z,98.85
2023-01-23T20:27:16.521Z,99.38
2023-01-23T20:31:38.672Z,95.22
2023-01-23T20:36:01.480Z,101.95
2023-01-23T20:40:23.410Z,101.25
2023-01-23T20:44:45.301Z,95.15
2023-01-23T20:49:09.110Z,98.07
2023-01-23T20:53:31.862Z,86.82
2023-01-23T20:58:12.931Z,85.07
2023-01-23T21:02:35.045Z,89.35
2023-01-23T21:06:57.631Z,95.95
2023-01-23T21:11:20.976Z,97.13
2023-01-23T21:15:43.117Z,90.38
2023-01-23T21:20:05.583Z,88.45
2023-01-23T21:24:27.715Z,82.13
2023-01-23T21:28:51.874Z,85.60
2023-01-23T21:33:13.854Z,77.00
2023-01-23T21:37:36.159Z,77.32
2023-01-23T21:42:02.694Z,70.40
2023-01-23T21:46:29.687Z,66.65
2023-01-23T21:51:15.771Z,71.57
2023-01-23T21:55:44.283Z,69.90
2023-01-23T22:00:27.152Z,68.88
2023-01-23T22:04:54.577Z,72.35
2023-01-23T22:09:27.434Z,67.10
2023-01-23T22:13:56.318Z,65.57
2023-01-23T22:18:30.710Z,68.97
2023-01-23T22:22:54.009Z,63.28
2023-01-23T22:27:32.691Z,64.43
2023-01-23T22:31:57.366Z,67.70
2023-01-23T22:36:21.134Z,62.33
2023-01-23T22:41:06.435Z,64.40
2023-01-23T22:45:29.306Z,57.08
2023-01-23T22:49:51.252Z,56.85
2023-01-23T22:54:13.413Z,53.15
2023-01-23T22:58:37.359Z,53.88
2023-01-23T23:02:59.199Z,53.13
2023-01-23T23:07:21.251Z,53.95
2023-01-23T23:11:44.252Z,50.72
2023-01-23T23:16:17.953Z,50.80
2023-01-23T23:20:39.911Z,47.30
2023-01-23T23:25:02.111Z,53.13
2023-01-23T23:29:24.302Z,52.20
2023-01-23T23:33:45.902Z,51.17
2023-01-23T23:38:07.962Z,49.33
2023-01-23T23:42:29.780Z,47.85
2023-01-23T23:46:51.945Z,47.78
2023-01-23T23:51:18.807Z,44.58
2023-01-23T23:55:40.666Z,46.60
